createdAt,value
2022-09-26T00:01:26.901Z,75083.44
2022-09-26T00:03:57.761Z,75079.38
2022-09-26T00:06:27.115Z,75083.44
2022-09-26T00:08:55.835Z,75075.28
2022-09-26T00:11:26.197Z,75075.28
2022-09-26T00:13:55.639Z,75071.22
2022-09-26T00:16:24.684Z,75069.16
2022-09-26T00:18:53.786Z,75067.13
2022-09-26T00:21:24.261Z,75058.97
2022-09-26T00:23:52.886Z,75065.09
2022-09-26T00:26:22.604Z,75065.09
2022-09-26T00:28:51.328Z,75067.13
2022-09-26T00:31:21.001Z,75063.06
2022-09-26T00:33:49.187Z,75065.09
2022-09-26T00:36:17.467Z,75058.97
2022-09-26T00:38:46.953Z,75054.91
2022-09-26T00:41:16.195Z,75058.97
2022-09-26T00:43:45.938Z,75063.06
2022-09-26T00:46:24.396Z,75071.22
2022-09-26T00:48:56.695Z,75058.97
2022-09-26T00:51:24.642Z,75063.06
2022-09-26T00:53:55.750Z,75061.03
2022-09-26T00:56:27.410Z,75067.13
2022-09-26T00:59:01.819Z,75058.97
2022-09-26T01:01:29.978Z,75056.94
2022-09-26T01:03:59.519Z,75052.88
2022-09-26T01:06:27.480Z,75058.97
2022-09-26T01:09:00.067Z,75063.06
2022-09-26T01:11:31.569Z,75065.09
2022-09-26T01:14:00.260Z,75058.97
2022-09-26T01:16:28.537Z,75061.03
2022-09-26T01:18:56.962Z,75054.91
2022-09-26T01:21:43.728Z,75058.97
2022-09-26T01:24:49.478Z,75050.81
2022-09-26T01:27:34.818Z,75050.81
2022-09-26T01:30:11.250Z,75046.75
2022-09-26T01:32:57.200Z,75046.75
2022-09-26T01:35:47.538Z,75042.69
2022-09-26T01:38:25.138Z,75038.59
2022-09-26T01:41:06.288Z,75034.53
2022-09-26T01:43:41.794Z,75034.53
2022-09-26T01:46:20.695Z,75034.53
2022-09-26T01:48:55.302Z,75032.47
2022-09-26T01:51:29.363Z,75028.41
2022-09-26T01:54:02.993Z,75030.44
2022-09-26T01:56:36.699Z,75026.38
2022-09-26T01:59:09.610Z,75028.41
2022-09-26T02:01:44.338Z,75026.38
2022-09-26T02:04:16.035Z,75020.25
2022-09-26T02:06:48.536Z,75016.19
2022-09-26T02:09:21.068Z,75018.22
2022-09-26T02:11:52.039Z,75020.25
2022-09-26T02:14:26.570Z,75022.28
2022-09-26T02:17:01.399Z,75014.13
2022-09-26T02:19:32.879Z,75014.13
2022-09-26T02:22:01.978Z,75018.22
2022-09-26T02:24:30.242Z,75010.06
2022-09-26T02:26:58.418Z,75010.06
2022-09-26T02:29:27.046Z,75008.03
2022-09-26T02:31:59.410Z,75006.00
2022-09-26T02:34:27.810Z,75010.06
2022-09-26T02:36:58.077Z,75003.94
2022-09-26T02:39:26.053Z,75001.91
2022-09-26T02:42:01.641Z,74997.84
2022-09-26T02:44:40.599Z,75001.91
2022-09-26T02:47:34.712Z,74997.84
2022-09-26T02:50:22.757Z,74997.84
2022-09-26T02:53:01.291Z,74997.84
2022-09-26T02:55:40.550Z,74997.84
2022-09-26T02:58:16.305Z,74995.81
2022-09-26T03:00:54.368Z,74997.84
2022-09-26T03:03:30.531Z,75010.06
2022-09-26T03:05:59.776Z,75006.00
2022-09-26T03:08:29.439Z,75003.94
2022-09-26T03:10:59.988Z,75006.00
2022-09-26T03:13:28.982Z,75006.00
2022-09-26T03:15:59.730Z,75008.03
2022-09-26T03:18:33.125Z,75010.06
2022-09-26T03:21:01.141Z,75010.06
2022-09-26T03:23:29.522Z,75014.13
2022-09-26T03:26:03.765Z,75014.13
2022-09-26T03:28:36.842Z,75006.00
2022-09-26T03:31:05.866Z,75008.03
2022-09-26T03:33:35.265Z,75010.06
2022-09-26T03:36:06.136Z,75006.00
2022-09-26T03:38:34.104Z,74999.88
2022-09-26T03:41:02.489Z,74999.88
2022-09-26T03:43:31.401Z,74993.75
2022-09-26T03:46:05.259Z,75001.91
2022-09-26T03:48:34.842Z,75006.00
2022-09-26T03:51:03.666Z,75014.13
2022-09-26T03:53:33.024Z,75008.03
2022-09-26T03:56:05.193Z,75010.06
2022-09-26T03:58:33.213Z,75010.06
2022-09-26T04:01:05.364Z,75006.00
2022-09-26T04:03:35.990Z,75014.13
2022-09-26T04:06:04.336Z,75010.06
2022-09-26T04:08:32.341Z,75006.00
2022-09-26T04:11:04.179Z,75001.91
2022-09-26T04:16:21.202Z,74993.75
2022-09-26T04:18:50.905Z,74995.81
2022-09-26T04:21:18.830Z,74993.75
2022-09-26T04:23:46.749Z,74989.69
2022-09-26T04:26:22.849Z,74993.75
2022-09-26T04:28:52.291Z,74989.69
2022-09-26T04:31:21.434Z,74991.72
2022-09-26T04:33:51.299Z,74993.75
2022-09-26T04:36:19.165Z,74987.66
2022-09-26T04:38:46.990Z,74993.75
2022-09-26T04:41:16.521Z,74985.59
2022-09-26T04:43:44.434Z,74989.69
2022-09-26T04:46:18.619Z,74989.69
2022-09-26T04:48:50.868Z,74989.69
2022-09-26T04:51:20.461Z,74993.75
2022-09-26T04:53:48.874Z,74987.66
2022-09-26T04:56:17.932Z,74985.59
2022-09-26T04:58:46.834Z,74987.66
2022-09-26T05:01:17.366Z,74981.53
2022-09-26T05:03:46.137Z,74983.56
2022-09-26T05:06:17.562Z,74977.47
2022-09-26T05:08:48.489Z,74973.38
2022-09-26T05:11:18.011Z,74969.31
2022-09-26T05:13:49.049Z,74969.31
2022-09-26T05:16:20.391Z,74967.25
2022-09-26T05:18:50.971Z,74965.22
2022-09-26T05:21:20.988Z,74965.22
2022-09-26T05:24:06.203Z,74965.22
2022-09-26T05:26:41.441Z,74965.22
2022-09-26T05:29:09.770Z,74969.31
2022-09-26T05:31:38.355Z,74961.16
2022-09-26T05:34:07.559Z,74961.16
2022-09-26T05:36:37.429Z,74957.06
2022-09-26T05:39:06.004Z,74961.16
2022-09-26T05:41:33.571Z,74961.16
2022-09-26T05:44:01.734Z,74959.13
2022-09-26T05:46:29.583Z,74953.00
2022-09-26T05:48:57.545Z,74959.13
2022-09-26T05:51:25.382Z,74961.16
2022-09-26T05:53:54.489Z,74961.16
2022-09-26T05:56:23.537Z,74961.16
2022-09-26T05:58:51.407Z,74969.31
2022-09-26T06:01:19.919Z,74953.00
2022-09-26T06:03:48.473Z,74965.22
2022-09-26T06:06:18.182Z,74957.06
2022-09-26T06:08:46.479Z,74957.06
2022-09-26T06:11:18.228Z,74953.00
2022-09-26T06:13:46.770Z,74948.91
2022-09-26T06:16:18.531Z,74963.19
2022-09-26T06:18:47.857Z,74953.00
2022-09-26T06:21:17.550Z,74953.00
2022-09-26T06:23:46.412Z,74950.97
2022-09-26T06:26:18.366Z,74953.00
2022-09-26T06:28:47.185Z,74948.91
2022-09-26T06:31:18.318Z,74948.91
2022-09-26T06:33:51.524Z,74946.88
2022-09-26T06:36:19.420Z,74957.06
2022-09-26T06:38:47.217Z,74950.97
2022-09-26T06:41:16.534Z,74959.13
2022-09-26T06:43:45.569Z,74950.97
2022-09-26T06:46:13.428Z,74948.91
2022-09-26T06:48:41.223Z,74948.91
2022-09-26T06:51:13.899Z,74953.00
2022-09-26T06:53:42.623Z,74950.97
2022-09-26T06:56:10.985Z,74940.78
2022-09-26T06:58:40.250Z,74940.78
2022-09-26T07:01:08.906Z,74932.63
2022-09-26T07:03:38.636Z,74928.53
2022-09-26T07:06:09.553Z,74924.47
2022-09-26T07:09:00.951Z,74920.38
2022-09-26T07:14:16.896Z,74928.53
2022-09-26T07:16:45.362Z,74920.38
2022-09-26T07:19:13.773Z,74912.22
2022-09-26T07:21:41.726Z,74895.94
2022-09-26T07:24:14.012Z,74891.84
2022-09-26T07:26:42.074Z,74908.16
2022-09-26T07:29:10.008Z,74904.09
2022-09-26T07:31:39.644Z,74924.47
2022-09-26T07:34:08.728Z,74920.38
2022-09-26T07:36:37.211Z,74924.47
2022-09-26T07:39:05.162Z,74940.78
2022-09-26T07:41:33.069Z,74942.81
2022-09-26T07:47:07.692Z,74926.50
2022-09-26T07:49:52.943Z,74908.16
2022-09-26T07:52:22.583Z,74900.00
2022-09-26T07:54:50.558Z,74908.16
2022-09-26T07:57:19.599Z,74904.09
2022-09-26T07:59:49.736Z,74895.94
2022-09-26T08:02:24.022Z,74891.84
2022-09-26T08:04:58.799Z,74895.94
2022-09-26T08:07:29.216Z,74895.94
2022-09-26T08:09:57.360Z,74906.13
2022-09-26T08:12:27.000Z,74902.03
2022-09-26T08:14:54.974Z,74883.69
2022-09-26T08:17:24.181Z,74877.59
2022-09-26T08:19:51.969Z,74855.16
2022-09-26T08:22:19.829Z,74847.00
2022-09-26T08:24:49.767Z,74800.16
2022-09-26T08:27:18.034Z,74781.81
2022-09-26T08:29:49.346Z,74802.19
2022-09-26T08:32:17.518Z,74810.34
2022-09-26T08:34:47.197Z,74818.47
2022-09-26T08:37:16.085Z,74822.56
2022-09-26T08:39:43.945Z,74818.47
2022-09-26T08:42:33.939Z,74818.47
2022-09-26T08:45:47.487Z,74804.22
2022-09-26T08:48:29.235Z,74789.94
2022-09-26T08:51:07.146Z,74798.09
2022-09-26T08:53:44.766Z,74777.72
2022-09-26T08:56:20.842Z,74792.00
2022-09-26T08:58:52.320Z,74781.81
2022-09-26T09:01:27.950Z,74765.50
2022-09-26T09:04:03.048Z,74757.34
2022-09-26T09:06:33.545Z,74757.34
2022-09-26T09:09:01.906Z,74761.41
2022-09-26T09:11:50.691Z,74787.91
2022-09-26T09:14:41.861Z,74787.91
2022-09-26T09:17:18.623Z,74794.03
2022-09-26T09:19:57.012Z,74775.69
2022-09-26T09:22:46.436Z,74755.31
2022-09-26T09:25:20.863Z,74714.53
2022-09-26T09:28:08.050Z,74692.13
2022-09-26T09:30:43.788Z,74700.28
2022-09-26T09:33:15.817Z,74710.47
2022-09-26T09:35:48.188Z,74730.84
2022-09-26T09:38:21.110Z,74720.66
2022-09-26T09:40:59.237Z,74706.41
2022-09-26T09:43:33.047Z,74704.34
2022-09-26T09:46:05.316Z,74712.50
2022-09-26T09:48:33.162Z,74710.47
2022-09-26T09:51:10.600Z,74671.75
2022-09-26T09:53:55.889Z,74675.81
2022-09-26T09:56:33.939Z,74692.13
2022-09-26T09:59:20.286Z,74671.75
2022-09-26T10:01:54.700Z,74647.28
2022-09-26T10:04:33.944Z,74645.25
2022-09-26T10:07:03.978Z,74649.34
2022-09-26T10:09:40.689Z,74631.00
2022-09-26T10:12:16.701Z,74622.84
2022-09-26T10:14:50.415Z,74588.19
2022-09-26T10:17:23.036Z,74563.75
2022-09-26T10:19:51.925Z,74525.03
2022-09-26T10:22:27.251Z,74486.31
2022-09-26T10:25:03.793Z,74435.34
2022-09-26T10:27:38.133Z,74421.09
2022-09-26T10:30:25.695Z,74398.69
2022-09-26T10:32:57.005Z,74378.28
2022-09-26T10:35:26.447Z,74386.44
2022-09-26T10:38:06.678Z,74343.66
2022-09-26T10:40:45.857Z,74370.16
2022-09-26T10:43:25.984Z,74423.13
2022-09-26T10:45:57.391Z,74439.44
2022-09-26T10:48:34.891Z,74435.34
2022-09-26T10:51:03.057Z,74435.34
2022-09-26T10:53:37.041Z,74447.59
2022-09-26T10:56:10.945Z,74478.16
2022-09-26T10:58:42.230Z,74484.25
2022-09-26T11:01:20.957Z,74441.47
2022-09-26T11:03:50.604Z,74439.44
2022-09-26T11:06:32.931Z,74467.97
2022-09-26T11:09:03.435Z,74486.31
2022-09-26T11:11:37.443Z,74504.63
2022-09-26T11:14:07.619Z,74545.41
2022-09-26T11:16:50.159Z,74541.31
2022-09-26T11:19:27.368Z,74525.03
2022-09-26T11:22:07.299Z,74504.63
2022-09-26T11:24:45.896Z,74518.91
2022-09-26T11:27:24.455Z,74529.09
2022-09-26T11:29:58.878Z,74529.09
2022-09-26T11:32:31.307Z,74529.09
2022-09-26T11:35:03.682Z,74510.75
2022-09-26T11:38:00.111Z,74494.44
2022-09-26T11:40:40.692Z,74504.63
2022-09-26T11:43:23.001Z,74455.72
2022-09-26T11:46:05.243Z,74402.75
2022-09-26T11:48:52.152Z,74351.81
2022-09-26T11:51:34.560Z,74333.47
2022-09-26T11:54:29.120Z,74309.00
2022-09-26T11:57:10.575Z,74331.44
2022-09-26T12:00:02.674Z,74351.81
2022-09-26T12:02:47.410Z,74347.72
2022-09-26T12:05:27.186Z,74353.84
2022-09-26T12:08:09.027Z,74372.19
2022-09-26T12:10:47.892Z,74423.13
2022-09-26T12:13:29.860Z,74455.72
2022-09-26T12:16:09.366Z,74486.31
2022-09-26T12:18:47.014Z,74522.97
2022-09-26T12:21:26.941Z,74557.63
2022-09-26T12:23:57.200Z,74590.22
2022-09-26T12:26:34.664Z,74600.41
2022-09-26T12:29:16.077Z,74612.66
2022-09-26T12:31:55.658Z,74612.66
2022-09-26T12:34:46.649Z,74602.47
2022-09-26T12:37:33.819Z,74582.09
2022-09-26T12:40:19.286Z,74559.66
2022-09-26T12:43:04.714Z,74557.63
2022-09-26T12:45:54.128Z,74549.47
2022-09-26T12:48:38.717Z,74500.56
2022-09-26T12:51:24.997Z,74467.97
2022-09-26T12:54:13.256Z,74451.66
2022-09-26T12:56:49.330Z,74441.47
2022-09-26T12:59:38.407Z,74447.59
2022-09-26T13:02:41.700Z,74451.66
2022-09-26T13:05:55.401Z,74476.13
2022-09-26T13:08:33.205Z,74476.13
2022-09-26T13:11:13.825Z,74474.06
2022-09-26T13:14:09.737Z,74459.81
2022-09-26T13:16:50.859Z,74419.06
2022-09-26T13:19:25.038Z,74382.38
2022-09-26T13:22:00.052Z,74349.78
2022-09-26T13:24:34.683Z,74364.03
2022-09-26T13:27:10.378Z,74374.22
2022-09-26T13:29:40.736Z,74364.03
2022-09-26T13:32:17.723Z,74357.91
2022-09-26T13:34:51.739Z,74349.78
2022-09-26T13:37:38.395Z,74343.66
2022-09-26T13:40:21.181Z,74339.59
2022-09-26T13:43:00.732Z,74335.50
2022-09-26T13:45:44.155Z,74349.78
2022-09-26T13:48:18.984Z,74384.41
2022-09-26T13:50:54.725Z,74406.81
2022-09-26T13:53:32.350Z,74410.91
2022-09-26T13:56:48.454Z,74408.88
2022-09-26T13:59:34.522Z,74378.28
2022-09-26T14:02:28.455Z,74366.06
2022-09-26T14:05:30.505Z,74366.06
2022-09-26T14:08:15.705Z,74359.97
2022-09-26T14:10:54.670Z,74370.16
2022-09-26T14:13:34.798Z,74372.19
2022-09-26T14:16:05.346Z,74374.22
2022-09-26T14:19:06.425Z,74388.50
2022-09-26T14:21:40.257Z,74400.72
2022-09-26T14:24:28.359Z,74431.28
2022-09-26T14:27:05.751Z,74435.34
2022-09-26T14:29:44.581Z,74435.34
2022-09-26T14:32:17.668Z,74437.41
2022-09-26T14:34:47.013Z,74443.50
2022-09-26T14:37:30.636Z,74443.50
2022-09-26T14:40:13.653Z,74441.47
2022-09-26T14:43:22.655Z,74439.44
2022-09-26T14:45:54.318Z,74431.28
2022-09-26T14:48:35.771Z,74423.13
2022-09-26T14:51:07.180Z,74419.06
2022-09-26T14:53:40.089Z,74400.72
2022-09-26T14:56:11.675Z,74398.69
2022-09-26T14:58:52.691Z,74376.25
2022-09-26T15:01:26.945Z,74362.00
2022-09-26T15:03:58.769Z,74349.78
2022-09-26T15:06:28.625Z,74345.69
2022-09-26T15:08:59.280Z,74341.63
2022-09-26T15:11:34.765Z,74341.63
2022-09-26T15:14:15.981Z,74347.72
2022-09-26T15:16:48.338Z,74351.81
2022-09-26T15:19:21.475Z,74357.91
2022-09-26T15:21:55.723Z,74362.00
2022-09-26T15:24:26.685Z,74366.06
2022-09-26T15:26:57.015Z,74357.91
2022-09-26T15:29:26.717Z,74357.91
2022-09-26T15:31:55.905Z,74366.06
2022-09-26T15:34:30.573Z,74368.09
2022-09-26T15:37:02.168Z,74380.34
2022-09-26T15:39:41.985Z,74386.44
2022-09-26T15:42:40.440Z,74388.50
2022-09-26T15:45:26.115Z,74392.56
2022-09-26T15:47:55.246Z,74402.75
2022-09-26T15:50:28.096Z,74423.13
2022-09-26T15:53:01.177Z,74427.22
2022-09-26T15:55:33.539Z,74443.50
2022-09-26T15:58:04.240Z,74455.72
2022-09-26T16:00:36.895Z,74459.81
2022-09-26T16:03:37.797Z,74467.97
2022-09-26T16:06:15.236Z,74484.25
2022-09-26T16:08:43.627Z,74496.50
2022-09-26T16:11:11.560Z,74504.63
2022-09-26T16:13:46.264Z,74520.94
2022-09-26T16:16:19.723Z,74527.06
2022-09-26T16:18:54.510Z,74533.16
2022-09-26T16:21:24.350Z,74543.34
2022-09-26T16:23:54.215Z,74559.66
2022-09-26T16:26:30.066Z,74565.78
2022-09-26T16:28:58.690Z,74575.97
2022-09-26T16:31:31.272Z,74584.13
2022-09-26T16:34:01.226Z,74582.09
2022-09-26T16:36:31.410Z,74602.47
2022-09-26T16:39:01.962Z,74604.50
2022-09-26T16:44:33.834Z,74633.03
2022-09-26T16:47:06.687Z,74649.34
2022-09-26T16:49:45.678Z,74663.59
2022-09-26T16:52:37.525Z,74671.75
2022-09-26T16:55:07.216Z,74673.78
2022-09-26T16:57:38.253Z,74679.91
2022-09-26T17:00:33.120Z,74688.06
2022-09-26T17:03:02.946Z,74696.19
2022-09-26T17:05:31.135Z,74696.19
2022-09-26T17:07:59.144Z,74698.25
2022-09-26T17:10:27.823Z,74696.19
2022-09-26T17:13:02.583Z,74698.25
2022-09-26T17:15:32.309Z,74700.28
2022-09-26T17:18:06.387Z,74696.19
2022-09-26T17:20:34.312Z,74700.28
2022-09-26T17:23:21.932Z,74700.28
2022-09-26T17:25:55.334Z,74700.28
2022-09-26T17:28:32.355Z,74712.50
2022-09-26T17:31:06.269Z,74716.59
2022-09-26T17:33:40.387Z,74708.44
2022-09-26T17:36:10.997Z,74710.47
2022-09-26T17:38:42.359Z,74704.34
2022-09-26T17:41:12.531Z,74704.34
2022-09-26T17:43:40.895Z,74704.34
2022-09-26T17:46:15.596Z,74704.34
2022-09-26T17:48:45.842Z,74710.47
2022-09-26T17:51:14.518Z,74712.50
2022-09-26T17:53:50.155Z,74706.41
2022-09-26T17:56:18.959Z,74706.41
2022-09-26T17:58:49.027Z,74702.31
2022-09-26T18:01:23.288Z,74700.28
2022-09-26T18:03:56.554Z,74700.28
2022-09-26T18:06:27.589Z,74698.25
2022-09-26T18:08:59.589Z,74694.16
2022-09-26T18:11:28.199Z,74704.34
2022-09-26T18:13:57.065Z,74702.31
2022-09-26T18:16:25.820Z,74702.31
2022-09-26T18:18:55.992Z,74696.19
2022-09-26T18:21:26.279Z,74692.13
2022-09-26T18:23:57.851Z,74686.00
2022-09-26T18:26:31.118Z,74688.06
2022-09-26T18:29:02.445Z,74692.13
2022-09-26T18:31:32.792Z,74696.19
2022-09-26T18:34:03.183Z,74702.31
2022-09-26T18:36:33.444Z,74700.28
2022-09-26T18:39:01.673Z,74700.28
2022-09-26T18:41:30.104Z,74696.19
2022-09-26T18:44:02.976Z,74704.34
2022-09-26T18:46:31.520Z,74704.34
2022-09-26T18:49:06.187Z,74708.44
2022-09-26T18:51:35.529Z,74708.44
2022-09-26T18:54:10.677Z,74708.44
2022-09-26T18:56:57.000Z,74718.63
2022-09-26T18:59:28.902Z,74726.78
2022-09-26T19:01:58.373Z,74741.03
2022-09-26T19:04:27.317Z,74749.19
2022-09-26T19:07:00.916Z,74749.19
2022-09-26T19:09:33.671Z,74753.28
2022-09-26T19:12:02.219Z,74745.13
2022-09-26T19:14:31.694Z,74747.16
2022-09-26T19:17:00.510Z,74745.13
2022-09-26T19:19:30.241Z,74749.19
2022-09-26T19:22:02.294Z,74749.19
2022-09-26T19:24:34.123Z,74751.22
2022-09-26T19:27:06.586Z,74751.22
2022-09-26T19:29:39.854Z,74755.31
2022-09-26T19:32:13.764Z,74749.19
2022-09-26T19:34:41.937Z,74755.31
2022-09-26T19:37:14.250Z,74749.19
2022-09-26T19:39:42.871Z,74751.22
2022-09-26T19:42:11.118Z,74745.13
2022-09-26T19:44:39.460Z,74753.28
2022-09-26T19:47:10.710Z,74757.34
2022-09-26T19:49:38.948Z,74755.31
2022-09-26T19:52:15.900Z,74753.28
2022-09-26T19:54:45.360Z,74749.19
2022-09-26T19:57:17.074Z,74745.13
2022-09-26T19:59:45.798Z,74743.06
2022-09-26T20:02:18.288Z,74741.03
2022-09-26T20:04:47.612Z,74734.94
2022-09-26T20:07:20.834Z,74736.97
2022-09-26T20:09:49.550Z,74728.81
2022-09-26T20:12:17.488Z,74728.81
2022-09-26T20:14:45.992Z,74722.69
2022-09-26T20:17:22.163Z,74724.75
2022-09-26T20:19:50.802Z,74720.66
2022-09-26T20:22:24.848Z,74724.75
2022-09-26T20:24:55.712Z,74728.81
2022-09-26T20:27:25.618Z,74736.97
2022-09-26T20:30:10.958Z,74741.03
2022-09-26T20:32:41.442Z,74736.97
2022-09-26T20:35:14.430Z,74745.13
2022-09-26T20:37:44.912Z,74736.97
2022-09-26T20:40:18.059Z,74741.03
2022-09-26T20:42:51.709Z,74736.97
2022-09-26T20:45:30.976Z,74736.97
2022-09-26T20:48:01.102Z,74747.16
2022-09-26T20:50:34.123Z,74743.06
2022-09-26T20:53:03.826Z,74749.19
2022-09-26T20:55:32.387Z,74747.16
2022-09-26T20:58:00.618Z,74745.13
2022-09-26T21:00:28.551Z,74745.13
2022-09-26T21:02:57.278Z,74753.28
2022-09-26T21:05:27.368Z,74755.31
2022-09-26T21:07:57.872Z,74757.34
2022-09-26T21:10:29.275Z,74753.28
2022-09-26T21:12:57.905Z,74761.41
2022-09-26T21:15:29.069Z,74765.50
2022-09-26T21:17:59.124Z,74763.47
2022-09-26T21:20:29.106Z,74761.41
2022-09-26T21:22:58.313Z,74761.41
2022-09-26T21:25:30.132Z,74759.38
2022-09-26T21:28:01.059Z,74761.41
2022-09-26T21:30:30.340Z,74759.38
2022-09-26T21:32:59.932Z,74773.66
2022-09-26T21:35:31.908Z,74769.56
2022-09-26T21:38:02.077Z,74769.56
2022-09-26T21:40:36.186Z,74773.66
2022-09-26T21:43:10.615Z,74781.81
2022-09-26T21:45:38.663Z,74773.66
2022-09-26T21:48:06.752Z,74771.59
2022-09-26T21:50:36.711Z,74767.53
2022-09-26T21:53:10.993Z,74763.47
2022-09-26T21:55:46.612Z,74763.47
2022-09-26T21:58:21.338Z,74763.47
2022-09-26T22:00:49.578Z,74763.47
2022-09-26T22:03:17.944Z,74761.41
2022-09-26T22:05:45.873Z,74753.28
2022-09-26T22:08:13.847Z,74757.34
2022-09-26T22:10:43.223Z,74765.50
2022-09-26T22:13:11.184Z,74757.34
2022-09-26T22:15:39.200Z,74751.22
2022-09-26T22:18:07.207Z,74753.28
2022-09-26T22:20:35.311Z,74741.03
2022-09-26T22:23:03.221Z,74741.03
2022-09-26T22:25:31.623Z,74730.84
2022-09-26T22:28:00.926Z,74724.75
2022-09-26T22:30:28.880Z,74720.66
2022-09-26T22:32:56.884Z,74728.81
2022-09-26T22:35:24.823Z,74728.81
2022-09-26T22:37:52.782Z,74736.97
2022-09-26T22:40:20.775Z,74732.88
2022-09-26T22:42:50.915Z,74730.84
2022-09-26T22:45:20.602Z,74730.84
2022-09-26T22:47:48.634Z,74728.81
2022-09-26T22:50:16.678Z,74712.50
2022-09-26T22:52:44.931Z,74708.44
2022-09-26T22:55:13.292Z,74708.44
2022-09-26T22:57:41.237Z,74706.41
2022-09-26T23:00:10.550Z,74704.34
2022-09-26T23:02:39.985Z,74708.44
2022-09-26T23:05:08.628Z,74704.34
2022-09-26T23:07:36.614Z,74698.25
2022-09-26T23:10:04.686Z,74700.28
2022-09-26T23:12:32.658Z,74688.06
2022-09-26T23:15:00.786Z,74696.19
2022-09-26T23:17:29.015Z,74692.13
2022-09-26T23:19:58.616Z,74700.28
2022-09-26T23:22:26.529Z,74694.16
2022-09-26T23:24:54.422Z,74690.09
2022-09-26T23:27:26.217Z,74690.09
2022-09-26T23:29:55.258Z,74690.09
2022-09-26T23:32:23.255Z,74692.13
2022-09-26T23:34:51.147Z,74700.28
2022-09-26T23:37:20.434Z,74696.19
2022-09-26T23:39:48.408Z,74696.19
2022-09-26T23:42:16.320Z,74683.97
2022-09-26T23:44:44.210Z,74679.91
2022-09-26T23:47:12.155Z,74669.72
2022-09-26T23:49:40.147Z,74663.59
2022-09-26T23:52:08.042Z,74667.69
2022-09-26T23:54:37.363Z,74659.53
2022-09-26T23:57:05.322Z,74653.41
2022-09-26T23:59:33.217Z,74661.56
